createdAt,value
2022-12-11T00:03:00.548Z,21.38
2022-12-11T00:08:02.194Z,23.15
2022-12-11T00:13:03.845Z,20.17
2022-12-11T00:18:05.282Z,21.50
2022-12-11T00:23:06.778Z,22.73
2022-12-11T00:28:08.284Z,23.35
2022-12-11T00:33:09.920Z,22.88
2022-12-11T00:38:11.546Z,22.35
2022-12-11T00:43:12.999Z,22.67
2022-12-11T00:48:14.466Z,21.77
2022-12-11T00:53:15.925Z,21.55
2022-12-11T00:58:17.545Z,21.83
2022-12-11T01:03:19.165Z,21.45
2022-12-11T01:08:20.734Z,20.70
2022-12-11T01:13:22.207Z,23.40
2022-12-11T01:18:23.654Z,22.05
2022-12-11T01:23:25.159Z,22.52
2022-12-11T01:28:26.578Z,21.85
2022-12-11T01:33:28.045Z,20.60
2022-12-11T01:38:29.555Z,22.40
2022-12-11T01:43:31.041Z,21.00
2022-12-11T01:48:33.454Z,21.05
2022-12-11T01:53:36.334Z,22.15
2022-12-11T01:58:38.040Z,20.17
2022-12-11T02:03:39.491Z,20.33
2022-12-11T02:08:40.953Z,20.27
2022-12-11T02:13:42.418Z,20.98
2022-12-11T02:18:43.879Z,20.50
2022-12-11T02:23:45.356Z,21.23
2022-12-11T02:28:46.773Z,22.10
2022-12-11T02:33:48.400Z,20.98
2022-12-11T02:38:49.903Z,20.05
2022-12-11T02:43:51.323Z,18.00
2022-12-11T02:48:52.747Z,20.35
2022-12-11T02:53:54.210Z,20.50
2022-12-11T02:58:58.689Z,20.08
2022-12-11T03:04:00.368Z,18.90
2022-12-11T03:09:01.997Z,20.40
2022-12-11T03:14:03.452Z,17.15
2022-12-11T03:19:04.898Z,19.02
2022-12-11T03:24:06.406Z,18.55
2022-12-11T03:29:07.906Z,21.67
2022-12-11T03:34:09.532Z,19.27
2022-12-11T03:39:11.024Z,19.42
2022-12-11T03:44:12.480Z,18.67
2022-12-11T03:49:22.124Z,19.80
2022-12-11T03:54:23.586Z,19.92
2022-12-11T03:59:25.140Z,16.63
2022-12-11T04:04:26.786Z,19.85
2022-12-11T04:09:28.238Z,18.77
2022-12-11T04:14:29.746Z,18.70
2022-12-11T04:19:31.243Z,18.35
2022-12-11T04:24:32.711Z,17.65
2022-12-11T04:29:34.198Z,18.95
2022-12-11T04:34:35.822Z,19.23
2022-12-11T04:39:37.269Z,17.85
2022-12-11T04:44:38.900Z,17.58
2022-12-11T04:49:40.321Z,17.42
2022-12-11T04:54:41.943Z,18.50
2022-12-11T04:59:43.566Z,16.33
2022-12-11T05:04:45.005Z,17.02
2022-12-11T05:09:46.431Z,18.13
2022-12-11T05:14:47.855Z,15.60
2022-12-11T05:19:49.338Z,17.15
2022-12-11T05:24:50.967Z,15.93
2022-12-11T05:29:57.741Z,16.70
2022-12-11T05:35:00.797Z,16.52
2022-12-11T05:40:02.268Z,16.50
2022-12-11T05:45:03.725Z,15.65
2022-12-11T05:50:05.234Z,13.90
2022-12-11T05:55:06.858Z,15.73
2022-12-11T06:00:08.351Z,15.68
2022-12-11T06:05:09.972Z,16.27
2022-12-11T06:10:11.615Z,15.60
2022-12-11T06:15:13.283Z,15.30
2022-12-11T06:20:14.968Z,15.13
2022-12-11T06:25:16.397Z,15.75
2022-12-11T06:30:17.811Z,14.27
2022-12-11T06:35:19.261Z,13.20
2022-12-11T06:40:20.783Z,15.20
2022-12-11T06:45:22.265Z,16.10
2022-12-11T06:50:23.894Z,14.40
2022-12-11T06:55:25.388Z,14.15
2022-12-11T07:00:26.844Z,13.27
2022-12-11T07:05:28.314Z,15.18
2022-12-11T07:10:29.917Z,14.27
2022-12-11T07:15:31.957Z,14.45
2022-12-11T07:20:34.379Z,13.77
2022-12-11T07:25:35.831Z,13.70
2022-12-11T07:30:37.335Z,14.45
2022-12-11T07:35:40.814Z,14.05
2022-12-11T07:40:42.373Z,13.68
2022-12-11T07:45:43.874Z,14.30
2022-12-11T07:50:45.373Z,14.98
2022-12-11T07:55:46.893Z,14.38
2022-12-11T08:00:48.702Z,14.77
2022-12-11T08:05:50.261Z,16.60
2022-12-11T08:10:51.741Z,17.05
2022-12-11T08:15:54.883Z,18.33
2022-12-11T08:20:56.469Z,15.05
2022-12-11T08:25:57.904Z,15.20
2022-12-11T08:30:59.425Z,15.18
2022-12-11T08:36:00.955Z,14.63
2022-12-11T08:41:02.500Z,15.15
2022-12-11T08:46:04.034Z,14.82
2022-12-11T08:51:05.671Z,15.05
2022-12-11T08:56:07.157Z,15.38
2022-12-11T09:01:08.824Z,15.35
2022-12-11T09:06:10.351Z,15.13
2022-12-11T09:11:11.976Z,14.73
2022-12-11T09:16:13.493Z,14.85
2022-12-11T09:21:14.994Z,12.00
2022-12-11T09:26:16.511Z,13.23
2022-12-11T09:31:18.065Z,13.60
2022-12-11T09:36:19.745Z,12.77
2022-12-11T09:41:21.312Z,13.07
2022-12-11T09:46:24.763Z,11.77
2022-12-11T09:51:26.620Z,13.23
2022-12-11T09:56:28.154Z,10.68
2022-12-11T10:01:29.644Z,11.15
2022-12-11T10:06:31.190Z,13.05
2022-12-11T10:11:32.705Z,11.88
2022-12-11T10:16:34.199Z,10.60
2022-12-11T10:21:35.675Z,10.40
2022-12-11T10:26:37.254Z,10.45
2022-12-11T10:31:38.719Z,11.77
2022-12-11T10:36:40.297Z,9.20
2022-12-11T10:41:41.782Z,11.02
2022-12-11T10:46:43.275Z,10.05
2022-12-11T10:51:44.760Z,11.20
2022-12-11T10:56:46.259Z,9.52
2022-12-11T11:01:47.714Z,9.20
2022-12-11T11:06:49.295Z,9.50
2022-12-11T11:11:50.770Z,9.05
2022-12-11T11:16:53.415Z,9.57
2022-12-11T11:21:54.904Z,10.00
2022-12-11T11:27:12.812Z,9.93
2022-12-11T11:32:15.231Z,8.45
2022-12-11T11:37:16.698Z,8.57
2022-12-11T11:42:18.333Z,8.70
2022-12-11T11:47:19.856Z,9.02
2022-12-11T11:52:21.347Z,10.68
2022-12-11T11:57:22.825Z,9.35
2022-12-11T12:02:24.323Z,10.60
2022-12-11T12:07:26.108Z,9.23
2022-12-11T12:12:32.409Z,10.57
2022-12-11T12:17:35.366Z,11.27
2022-12-11T12:22:36.841Z,9.93
2022-12-11T12:27:53.673Z,10.88
2022-12-11T12:32:55.224Z,9.52
2022-12-11T12:37:56.754Z,9.80
2022-12-11T12:42:58.236Z,10.82
2022-12-11T12:47:59.694Z,11.25
2022-12-11T12:53:01.150Z,19.10
2022-12-11T12:58:02.651Z,21.58
2022-12-11T13:03:04.086Z,13.35
2022-12-11T13:08:05.563Z,11.18
2022-12-11T13:13:07.152Z,9.25
2022-12-11T13:18:08.666Z,11.13
2022-12-11T13:23:10.130Z,11.82
2022-12-11T13:28:11.612Z,8.70
2022-12-11T13:33:13.297Z,11.60
2022-12-11T13:38:14.783Z,12.07
2022-12-11T13:43:16.204Z,13.90
2022-12-11T13:48:17.639Z,10.38
2022-12-11T13:53:19.067Z,10.65
2022-12-11T13:58:20.492Z,10.38
2022-12-11T14:03:21.966Z,9.70
2022-12-11T14:08:23.450Z,9.85
2022-12-11T14:13:24.899Z,10.50
2022-12-11T14:18:26.354Z,9.27
2022-12-11T14:23:27.994Z,9.25
2022-12-11T14:28:29.482Z,9.68
2022-12-11T14:33:30.920Z,7.82
2022-12-11T14:38:32.370Z,8.05
2022-12-11T14:43:33.836Z,8.07
2022-12-11T14:48:35.302Z,9.10
2022-12-11T14:53:36.731Z,9.02
2022-12-11T14:58:38.183Z,7.75
2022-12-11T15:03:39.615Z,7.97
2022-12-11T15:08:41.038Z,7.15
2022-12-11T15:13:42.509Z,8.65
2022-12-11T15:18:43.956Z,9.95
2022-12-11T15:23:45.513Z,9.25
2022-12-11T15:28:46.989Z,9.90
2022-12-11T15:33:48.451Z,9.38
2022-12-11T15:38:49.924Z,8.30
2022-12-11T15:43:56.755Z,9.65
2022-12-11T15:48:59.951Z,9.15
2022-12-11T15:54:01.448Z,8.38
2022-12-11T15:59:02.970Z,8.40
2022-12-11T16:04:05.423Z,8.13
2022-12-11T16:09:07.065Z,8.43
2022-12-11T16:14:08.530Z,7.45
2022-12-11T16:19:09.961Z,7.15
2022-12-11T16:24:11.384Z,7.13
2022-12-11T16:29:12.831Z,6.78
2022-12-11T16:34:14.548Z,6.32
2022-12-11T16:39:16.197Z,7.90
2022-12-11T16:44:17.712Z,7.30
2022-12-11T16:49:19.220Z,8.60
2022-12-11T16:54:20.692Z,8.18
2022-12-11T16:59:22.145Z,8.93
2022-12-11T17:04:23.642Z,8.93
2022-12-11T17:09:25.097Z,8.55
2022-12-11T17:14:26.686Z,8.60
2022-12-11T17:19:28.194Z,8.63
2022-12-11T17:24:29.719Z,8.95
2022-12-11T17:29:31.163Z,10.07
2022-12-11T17:34:37.847Z,9.80
2022-12-11T17:39:40.128Z,9.35
2022-12-11T17:44:41.650Z,8.82
2022-12-11T17:49:50.381Z,9.52
2022-12-11T17:54:51.871Z,10.20
2022-12-11T17:59:53.377Z,9.35
2022-12-11T18:04:54.875Z,10.00
2022-12-11T18:09:56.371Z,11.15
2022-12-11T18:14:57.914Z,10.20
2022-12-11T18:19:59.380Z,9.77
2022-12-11T18:25:02.794Z,10.13
2022-12-11T18:30:07.904Z,10.90
2022-12-11T18:35:09.759Z,11.63
2022-12-11T18:40:11.766Z,11.27
2022-12-11T18:45:13.573Z,10.10
2022-12-11T18:50:15.277Z,8.82
2022-12-11T18:55:20.147Z,12.40
2022-12-11T19:00:21.812Z,11.57
2022-12-11T19:05:32.628Z,11.18
2022-12-11T19:10:34.246Z,12.13
2022-12-11T19:15:35.801Z,11.55
2022-12-11T19:20:48.926Z,11.15
2022-12-11T19:25:51.558Z,11.45
2022-12-11T19:30:53.053Z,11.13
2022-12-11T19:35:54.525Z,11.57
2022-12-11T19:40:56.024Z,12.05
2022-12-11T19:45:57.563Z,9.82
2022-12-11T19:50:59.080Z,12.38
2022-12-11T19:56:00.598Z,10.82
2022-12-11T20:01:02.154Z,11.55
2022-12-11T20:06:03.761Z,11.32
2022-12-11T20:11:05.345Z,11.63
2022-12-11T20:16:06.862Z,10.85
2022-12-11T20:21:08.430Z,11.88
2022-12-11T20:26:10.226Z,12.55
2022-12-11T20:31:18.040Z,9.98
2022-12-11T20:36:21.376Z,10.63
2022-12-11T20:41:22.921Z,9.77
2022-12-11T20:46:24.359Z,12.75
2022-12-11T20:51:27.577Z,13.68
2022-12-11T20:56:29.075Z,10.40
2022-12-11T21:01:30.548Z,12.25
2022-12-11T21:06:32.052Z,12.43
2022-12-11T21:16:53.611Z,11.13
2022-12-11T21:21:55.122Z,12.00
2022-12-11T21:26:57.156Z,9.13
2022-12-11T21:31:58.646Z,12.77
2022-12-11T21:37:00.291Z,10.63
2022-12-11T21:42:01.748Z,11.95
2022-12-11T21:47:03.270Z,12.40
2022-12-11T21:52:04.767Z,11.50
2022-12-11T21:57:06.295Z,14.20
2022-12-11T22:02:07.968Z,11.23
2022-12-11T22:07:09.475Z,11.40
2022-12-11T22:12:11.019Z,11.73
2022-12-11T22:17:12.863Z,9.70
2022-12-11T22:22:14.467Z,12.82
2022-12-11T22:27:20.456Z,11.45
2022-12-11T22:32:26.645Z,11.85
2022-12-11T22:48:25.846Z,12.15
2022-12-11T22:53:27.310Z,13.27
2022-12-11T22:58:28.769Z,10.90
2022-12-11T23:03:30.285Z,11.23
2022-12-11T23:08:31.965Z,10.52
2022-12-11T23:13:33.513Z,9.63
2022-12-11T23:18:34.984Z,10.35
2022-12-11T23:23:36.410Z,11.13
2022-12-11T23:28:37.831Z,11.50
2022-12-11T23:33:39.288Z,11.50
2022-12-11T23:38:40.711Z,11.60
2022-12-11T23:43:42.130Z,12.43
2022-12-11T23:48:46.859Z,12.00
2022-12-11T23:53:48.286Z,12.38
2022-12-11T23:58:49.706Z,12.52
